Time;durP1;ratioP1;P1;durP2;ratioP2;P2;SDS_P1;SDS_P2;PMS_P1;PMS_P2;Temp;Humidity;BMP_temperature;BMP_pressure;BME280_temperature;BME280_humidity;BME280_pressure;Samples;Min_cycle;Max_cycle;Signal;HPM_P1;HPM_P2
2021/01/07 00:00:55;;;;;;;7.45;5.05;;;;;;;3.76;73.64;99479.38;6017499;23;20378;-83
2021/01/07 00:07:44;;;;;;;6.80;4.47;;;;;;;3.75;73.50;99469.88;6038535;23;20020;-83
2021/01/07 00:14:45;;;;;;;5.75;4.53;;;;;;;3.75;73.79;99465.53;5981183;24;20027;-83
2021/01/07 00:17:23;;;;;;;9.00;4.38;;;;;;;3.72;73.60;99463.00;5981836;24;20028;-83
2021/01/07 00:20:21;;;;;;;6.85;5.13;;;;;;;3.71;73.32;99468.28;6124381;23;20077;-83
2021/01/07 00:22:50;;;;;;;7.28;4.70;;;;;;;3.73;73.96;99462.09;6131623;23;20076;-83
2021/01/07 00:26:14;;;;;;;;;;;;;;;;;;;;;
2021/01/07 00:32:27;;;;;;;6.63;3.90;;;;;;;3.71;73.52;99452.66;6066487;23;19917;-83
2021/01/07 00:42:07;;;;;;;5.95;4.18;;;;;;;3.66;73.93;99452.78;6010791;23;20156;-84
2021/01/07 00:45:03;;;;;;;6.32;4.10;;;;;;;3.65;73.90;99451.09;6009616;23;20032;-83
2021/01/07 00:48:45;;;;;;;6.82;4.47;;;;;;;3.65;73.90;99446.75;5981056;24;20024;-83
2021/01/07 00:51:21;;;;;;;7.05;4.30;;;;;;;3.67;74.12;99441.50;5980924;23;20468;-84
2021/01/07 00:54:03;;;;;;;5.78;4.00;;;;;;;3.69;74.61;99444.03;5981224;24;20030;-83
2021/01/07 00:56:34;;;;;;;6.90;4.90;;;;;;;3.70;74.24;99443.16;5981992;24;20051;-83
2021/01/07 00:59:07;;;;;;;6.40;4.55;;;;;;;3.74;74.47;99442.16;5981399;24;20480;-84
2021/01/07 01:04:49;;;;;;;12.60;5.07;;;;;;;3.79;74.15;99445.44;5981632;24;20348;-83
2021/01/07 01:07:27;;;;;;;7.68;5.50;;;;;;;3.79;74.15;99437.63;5981019;24;20099;-83
2021/01/07 01:09:56;;;;;;;8.15;5.68;;;;;;;3.80;73.86;99436.72;6022391;23;20034;-83
2021/01/07 01:12:22;;;;;;;10.27;6.15;;;;;;;3.82;74.28;99437.53;6013959;23;20023;-83
2021/01/07 01:14:50;;;;;;;10.57;6.72;;;;;;;3.84;74.24;99440.91;6014471;23;20073;-84
2021/01/07 01:17:17;;;;;;;12.77;8.40;;;;;;;3.85;74.39;99436.56;6014220;23;20059;-84
2021/01/07 01:19:43;;;;;;;13.15;8.95;;;;;;;3.87;74.17;99424.34;6014202;23;20046;-83
2021/01/07 01:22:17;;;;;;;14.40;7.93;;;;;;;3.85;73.79;99428.75;6046411;23;20122;-84
2021/01/07 01:24:43;;;;;;;13.65;8.20;;;;;;;3.88;74.25;99428.63;6125516;23;20026;-83
2021/01/07 01:27:10;;;;;;;13.65;8.38;;;;;;;3.88;74.46;99432.09;6125830;23;20021;-84
2021/01/07 01:29:39;;;;;;;12.07;8.23;;;;;;;3.88;74.02;99429.50;6125392;23;20022;-83
2021/01/07 01:32:08;;;;;;;10.23;7.35;;;;;;;3.88;74.15;99420.81;6126788;23;20037;-84
2021/01/07 01:34:34;;;;;;;13.68;7.80;;;;;;;3.90;74.12;99432.88;6125949;23;20026;-83
2021/01/07 01:37:04;;;;;;;10.88;7.78;;;;;;;3.87;73.65;99425.19;6125286;23;20035;-84
2021/01/07 01:39:31;;;;;;;11.05;7.70;;;;;;;3.89;74.08;99427.75;6127054;23;20117;-83
2021/01/07 01:42:03;;;;;;;13.52;7.72;;;;;;;3.88;74.29;99421.69;6126759;23;20028;-83
2021/01/07 01:44:32;;;;;;;8.60;6.13;;;;;;;3.89;74.33;99425.97;6125751;23;20026;-83
2021/01/07 01:47:06;;;;;;;13.25;7.30;;;;;;;3.88;73.77;99433.84;6126639;23;20536;-84
2021/01/07 01:49:34;;;;;;;12.63;6.82;;;;;;;3.89;73.91;99427.75;6127079;23;20113;-84
2021/01/07 01:52:01;;;;;;;10.52;7.07;;;;;;;3.90;74.26;99432.06;6152559;23;20018;-83
2021/01/07 01:54:27;;;;;;;10.77;7.38;;;;;;;3.90;73.94;99429.44;6156397;23;20351;-82
2021/01/07 01:56:55;;;;;;;13.68;7.85;;;;;;;3.88;74.24;99424.28;6156407;23;20022;-83
2021/01/07 01:59:25;;;;;;;13.68;8.00;;;;;;;3.88;74.36;99428.63;6156049;23;20033;-83
2021/01/07 02:01:51;;;;;;;10.85;6.72;;;;;;;3.89;73.96;99427.75;6156243;23;20021;-83
2021/01/07 02:04:18;;;;;;;12.38;6.90;;;;;;;3.88;74.26;99432.09;6155695;23;20483;-82
2021/01/07 02:06:44;;;;;;;11.65;6.75;;;;;;;3.88;74.08;99431.22;6156254;23;20025;-82
2021/01/07 02:09:10;;;;;;;13.00;6.95;;;;;;;3.87;74.35;99437.34;6155923;23;20356;-83
2021/01/07 02:11:37;;;;;;;10.18;6.82;;;;;;;3.88;74.28;99439.03;6156139;23;20055;-82
2021/01/07 02:14:04;;;;;;;10.07;7.05;;;;;;;3.87;74.06;99437.34;6156113;23;20396;-82
2021/01/07 02:16:31;;;;;;;10.60;7.00;;;;;;;3.88;74.44;99434.69;6156163;23;20022;-82
2021/01/07 02:18:57;;;;;;;10.93;8.00;;;;;;;3.88;74.14;99432.09;6155376;23;20465;-82
2021/01/07 02:21:24;;;;;;;10.65;6.65;;;;;;;3.87;74.29;99433.00;6155719;23;20021;-82
2021/01/07 02:23:51;;;;;;;12.50;7.20;;;;;;;3.87;74.29;99432.16;6156020;23;20022;-82
2021/01/07 02:26:19;;;;;;;13.90;8.50;;;;;;;3.86;74.37;99420.91;6154805;23;20022;-82
2021/01/07 02:28:46;;;;;;;14.00;7.93;;;;;;;3.87;74.17;99429.53;6155772;23;20527;-83
2021/01/07 02:31:13;;;;;;;12.35;8.48;;;;;;;3.86;73.94;99422.63;6154617;23;20048;-82
2021/01/07 02:33:39;;;;;;;14.05;8.40;;;;;;;3.85;74.24;99419.19;6156227;23;20068;-82
2021/01/07 02:36:06;;;;;;;14.40;9.35;;;;;;;3.85;74.34;99424.38;6156072;23;20081;-82
2021/01/07 02:38:33;;;;;;;12.82;7.93;;;;;;;3.84;74.35;99417.47;6156138;23;20025;-82
2021/01/07 02:40:59;;;;;;;13.82;7.78;;;;;;;3.84;73.98;99419.22;6155997;23;20021;-82
2021/01/07 02:43:26;;;;;;;10.52;7.20;;;;;;;3.85;74.35;99420.94;6155480;23;20029;-83
2021/01/07 02:45:55;;;;;;;12.05;7.18;;;;;;;3.83;74.21;99415.78;6156114;23;20025;-82
2021/01/07 02:48:26;;;;;;;16.77;7.90;;;;;;;3.84;74.44;99414.00;6155665;23;20017;-82
2021/01/07 02:50:58;;;;;;;11.52;7.22;;;;;;;3.84;73.98;99412.28;6158662;23;20018;-82
2021/01/07 02:53:26;;;;;;;11.20;7.32;;;;;;;3.85;74.35;99415.75;6158793;23;20021;-82
2021/01/07 02:56:06;;;;;;;11.15;7.00;;;;;;;3.84;74.49;99412.28;6160047;23;20021;-82
2021/01/07 02:58:45;;;;;;;10.40;6.75;;;;;;;3.84;74.41;99409.66;6185986;23;20025;-82
2021/01/07 03:01:38;;;;;;;10.55;6.95;;;;;;;3.81;73.98;99407.16;6159628;23;20044;-82
2021/01/07 03:04:07;;;;;;;9.98;7.13;;;;;;;3.84;74.28;99403.59;6184597;23;20080;-82
2021/01/07 03:06:36;;;;;;;8.68;6.15;;;;;;;3.83;73.93;99405.38;6159295;23;20021;-82
2021/01/07 03:09:04;;;;;;;8.88;6.10;;;;;;;3.83;73.93;99401.91;6185159;23;20021;-82
2021/01/07 03:11:30;;;;;;;7.47;5.88;;;;;;;3.82;74.07;99408.03;6159330;23;20021;-82
2021/01/07 03:13:56;;;;;;;8.43;6.22;;;;;;;3.79;74.20;99403.78;6185465;23;20032;-82
2021/01/07 03:16:23;;;;;;;11.13;6.90;;;;;;;3.78;73.79;99405.53;6185336;23;20025;-82
2021/01/07 03:18:49;;;;;;;10.23;6.50;;;;;;;3.75;73.91;99397.84;6158786;23;20476;-83
2021/01/07 03:21:15;;;;;;;9.73;6.45;;;;;;;3.74;73.88;99397.88;6184245;23;20051;-83
2021/01/07 03:23:41;;;;;;;10.13;7.20;;;;;;;3.73;73.83;99397.03;6184865;23;20028;-83
2021/01/07 03:26:07;;;;;;;9.75;6.57;;;;;;;3.72;74.02;99397.94;6185660;23;20029;-82
2021/01/07 03:28:33;;;;;;;10.30;6.88;;;;;;;3.70;74.17;99394.53;6185304;23;20518;-82
2021/01/07 03:31:00;;;;;;;11.80;7.05;;;;;;;3.70;74.36;99394.53;6160133;23;20396;-81
2021/01/07 03:33:26;;;;;;;10.60;7.28;;;;;;;3.69;74.20;99395.44;6186736;23;20460;-81
2021/01/07 03:35:52;;;;;;;10.93;7.43;;;;;;;3.70;74.69;99397.13;6161194;23;20025;-81
2021/01/07 03:38:18;;;;;;;12.60;7.35;;;;;;;3.71;74.54;99383.22;6187375;23;20021;-81
2021/01/07 03:40:44;;;;;;;11.15;7.78;;;;;;;3.73;74.42;99391.81;6161138;23;20021;-82
2021/01/07 03:43:10;;;;;;;10.13;6.93;;;;;;;3.73;74.28;99388.34;6160708;23;20095;-81
2021/01/07 03:45:37;;;;;;;10.13;6.93;;;;;;;3.73;74.51;99386.63;6187315;23;20101;-81
2021/01/07 03:48:04;;;;;;;9.18;6.90;;;;;;;3.74;74.41;99387.47;6187302;23;20028;-81
2021/01/07 03:50:30;;;;;;;9.75;6.50;;;;;;;3.76;74.48;99390.84;6187167;23;20024;-81
2021/01/07 03:52:56;;;;;;;9.73;7.15;;;;;;;3.76;74.52;99391.72;6160402;23;20021;-81
2021/01/07 03:55:22;;;;;;;10.32;6.88;;;;;;;3.79;74.20;99390.75;6160819;23;20040;-81
2021/01/07 03:57:49;;;;;;;9.40;6.47;;;;;;;3.79;74.23;99393.38;6187213;23;20048;-81
2021/01/07 04:00:15;;;;;;;10.32;6.40;;;;;;;3.78;74.37;99391.66;6160930;23;20025;-81
2021/01/07 04:02:42;;;;;;;8.75;6.07;;;;;;;3.76;74.26;99383.91;6186414;23;20021;-81
2021/01/07 04:05:08;;;;;;;8.20;5.60;;;;;;;3.75;74.19;99390.03;6186818;23;20380;-81
2021/01/07 04:07:37;;;;;;;9.82;6.57;;;;;;;3.74;74.09;99380.50;6160635;23;20025;-81
2021/01/07 04:10:05;;;;;;;9.13;6.38;;;;;;;3.72;74.09;99382.31;6186598;23;20486;-81
2021/01/07 04:12:31;;;;;;;9.18;6.43;;;;;;;3.73;74.48;99381.41;6186360;23;20329;-82
2021/01/07 04:15:01;;;;;;;9.60;6.35;;;;;;;3.72;74.38;99382.31;6187222;23;20029;-82
2021/01/07 04:17:28;;;;;;;8.70;6.40;;;;;;;3.73;74.21;99377.94;6160880;23;20062;-81
2021/01/07 04:19:55;;;;;;;6.82;5.10;;;;;;;3.73;74.40;99383.16;6160989;23;20025;-81
2021/01/07 04:22:21;;;;;;;9.10;6.25;;;;;;;3.73;74.29;99377.94;6186878;23;20021;-81
2021/01/07 04:24:47;;;;;;;10.57;7.22;;;;;;;3.73;74.15;99368.38;6187200;23;20044;-81
2021/01/07 04:27:14;;;;;;;10.23;7.25;;;;;;;3.74;74.53;99379.66;6186737;23;20025;-81
2021/01/07 04:29:40;;;;;;;9.25;6.30;;;;;;;3.74;74.52;99374.47;6186523;23;20467;-82
2021/01/07 04:32:06;;;;;;;8.85;6.25;;;;;;;3.73;74.25;99371.00;6186498;23;20021;-81
2021/01/07 04:34:32;;;;;;;8.98;5.90;;;;;;;3.72;74.49;99371.03;6186683;23;20021;-81
2021/01/07 04:36:58;;;;;;;8.70;5.80;;;;;;;3.71;74.07;99367.59;6187051;23;20363;-81
2021/01/07 04:39:24;;;;;;;7.55;5.32;;;;;;;3.71;74.23;99366.75;6160248;23;20025;-81
2021/01/07 04:41:50;;;;;;;6.82;5.00;;;;;;;3.71;74.27;99361.53;6185815;23;20021;-81
2021/01/07 04:44:18;;;;;;;6.95;4.88;;;;;;;3.70;74.25;99365.88;6186501;23;20028;-82
2021/01/07 04:46:44;;;;;;;6.80;4.82;;;;;;;3.69;74.40;99361.59;6186719;23;20021;-81
2021/01/07 04:49:10;;;;;;;6.32;4.65;;;;;;;3.71;74.19;99365.00;6160195;23;20025;-81
2021/01/07 04:51:38;;;;;;;8.15;5.15;;;;;;;3.68;74.42;99353.81;6186540;23;20076;-81
2021/01/07 04:54:05;;;;;;;8.30;5.18;;;;;;;3.69;74.17;99355.53;6186462;23;20096;-81
2021/01/07 04:56:31;;;;;;;8.50;5.18;;;;;;;3.69;74.17;99353.78;6160555;23;20021;-81
2021/01/07 04:58:57;;;;;;;7.00;4.80;;;;;;;3.68;74.43;99359.91;6186118;23;20487;-81
2021/01/07 05:01:23;;;;;;;7.35;5.43;;;;;;;3.68;74.34;99357.28;6187139;23;20017;-81
2021/01/07 05:03:51;;;;;;;7.28;5.25;;;;;;;3.67;74.56;99354.75;6185833;23;20028;-82
2021/01/07 05:06:24;;;;;;;9.32;5.40;;;;;;;3.66;74.43;99353.88;6186584;23;20025;-81
2021/01/07 05:09:02;;;;;;;6.30;5.35;;;;;;;3.65;74.06;99352.19;6186215;23;20025;-81
2021/01/07 05:11:32;;;;;;;7.40;4.80;;;;;;;3.68;74.40;99354.69;6160735;23;20392;-82
2021/01/07 05:14:03;;;;;;;7.72;5.30;;;;;;;3.66;74.19;99351.28;6159876;23;20021;-81
2021/01/07 05:16:30;;;;;;;6.53;4.78;;;;;;;3.67;74.47;99349.53;6186127;23;20032;-81
2021/01/07 05:18:57;;;;;;;7.47;5.28;;;;;;;3.66;74.31;99335.66;6186282;23;20079;-81
2021/01/07 05:21:24;;;;;;;6.60;4.93;;;;;;;3.65;74.42;99344.38;6160224;23;20017;-81
2021/01/07 05:23:51;;;;;;;4.78;3.78;;;;;;;3.66;74.65;99338.25;6186074;23;20033;-81
2021/01/07 05:26:19;;;;;;;7.28;4.43;;;;;;;3.65;74.51;99337.44;6185853;23;20025;-81
2021/01/07 05:28:53;;;;;;;4.13;3.60;;;;;;;3.64;74.35;99332.28;6159896;23;20487;-81
2021/01/07 05:31:27;;;;;;;5.80;4.53;;;;;;;3.63;73.83;99338.38;6160301;23;20017;-81
2021/01/07 05:33:55;;;;;;;6.28;4.30;;;;;;;3.64;74.51;99342.69;6185806;23;20028;-81
2021/01/07 05:36:27;;;;;;;5.43;3.92;;;;;;;3.62;74.04;99339.28;6186320;23;20021;-81
2021/01/07 05:38:56;;;;;;;5.30;3.88;;;;;;;3.62;74.45;99331.47;6159883;23;20031;-81
2021/01/07 05:41:25;;;;;;;5.70;4.15;;;;;;;3.62;74.31;99329.72;6159959;23;20353;-81
2021/01/07 05:44:05;;;;;;;6.40;4.63;;;;;;;3.59;74.01;99337.63;6159467;23;20368;-81
2021/01/07 05:46:34;;;;;;;9.25;4.85;;;;;;;3.63;74.39;99327.97;6160386;23;20341;-81
2021/01/07 05:49:01;;;;;;;7.68;5.20;;;;;;;3.62;74.38;99331.47;6160007;23;20025;-81
2021/01/07 05:51:29;;;;;;;6.38;4.80;;;;;;;3.62;74.25;99331.47;6135090;23;20028;-81
2021/01/07 05:54:00;;;;;;;8.75;5.65;;;;;;;3.61;74.52;99322.81;6185726;23;20046;-81
2021/01/07 05:56:26;;;;;;;7.25;5.03;;;;;;;3.64;74.74;99329.66;6186111;23;20028;-81
2021/01/07 05:58:54;;;;;;;5.82;4.57;;;;;;;3.64;74.83;99327.06;6186106;23;20021;-81
2021/01/07 06:01:22;;;;;;;6.20;4.72;;;;;;;3.66;74.69;99327.84;6185685;23;20029;-81
2021/01/07 06:03:54;;;;;;;7.07;5.25;;;;;;;3.63;74.15;99331.41;6159438;23;20052;-81
2021/01/07 06:06:23;;;;;;;7.93;5.10;;;;;;;3.64;74.21;99330.53;6186178;23;20024;-81
2021/01/07 06:08:54;;;;;;;6.05;4.88;;;;;;;3.66;74.27;99325.25;6159932;23;20036;-81
2021/01/07 06:11:22;;;;;;;7.95;5.07;;;;;;;3.66;74.33;99333.06;6159608;23;20404;-81
2021/01/07 06:13:52;;;;;;;7.78;4.75;;;;;;;3.65;74.31;99331.38;6185718;23;20032;-81
2021/01/07 06:16:21;;;;;;;6.93;4.53;;;;;;;3.64;74.47;99332.28;6185620;23;20083;-81
2021/01/07 06:18:48;;;;;;;5.78;4.28;;;;;;;3.62;74.52;99327.13;6185505;23;20029;-81
2021/01/07 06:21:15;;;;;;;7.25;4.57;;;;;;;3.62;74.67;99337.53;6185996;23;20036;-81
2021/01/07 06:23:45;;;;;;;5.93;4.57;;;;;;;3.63;74.71;99333.19;6185432;23;20032;-81
2021/01/07 06:26:24;;;;;;;7.07;5.05;;;;;;;3.61;74.24;99334.97;6185949;23;20025;-81
2021/01/07 06:28:56;;;;;;;7.95;5.03;;;;;;;3.62;74.31;99336.66;6159931;23;20355;-81
2021/01/07 06:31:36;;;;;;;5.78;4.45;;;;;;;3.61;74.07;99340.19;6185697;23;20018;-81
2021/01/07 06:34:03;;;;;;;9.10;5.45;;;;;;;3.62;74.82;99336.66;6185885;23;20102;-81
2021/01/07 06:36:47;;;;;;;8.77;5.28;;;;;;;3.60;74.38;99338.50;6185886;23;20036;-81
2021/01/07 06:39:13;;;;;;;6.63;4.97;;;;;;;3.62;74.30;99336.66;6185557;23;20029;-81
2021/01/07 06:41:39;;;;;;;10.05;5.57;;;;;;;3.62;74.65;99337.53;6185541;23;20084;-81
2021/01/07 06:44:06;;;;;;;7.38;4.85;;;;;;;3.63;74.76;99330.59;6159476;23;20021;-81
2021/01/07 06:46:44;;;;;;;6.70;4.63;;;;;;;3.60;74.13;99338.50;6185408;23;20025;-81
2021/01/07 06:49:21;;;;;;;7.68;4.25;;;;;;;3.61;74.39;99340.19;6185852;23;20029;-81
2021/01/07 06:51:59;;;;;;;5.80;3.72;;;;;;;3.61;74.41;99343.66;6185445;23;20027;-81
2021/01/07 06:54:31;;;;;;;6.10;4.18;;;;;;;3.62;74.53;99341.88;6159814;23;20075;-81
2021/01/07 06:56:58;;;;;;;5.93;3.90;;;;;;;3.64;74.93;99345.28;6185560;23;20025;-81
2021/01/07 06:59:25;;;;;;;5.10;4.03;;;;;;;3.64;74.96;99347.88;6185758;23;20255;-81
2021/01/07 07:01:53;;;;;;;5.70;4.25;;;;;;;3.65;74.54;99344.38;6185290;23;20021;-81
2021/01/07 07:04:30;;;;;;;7.53;4.30;;;;;;;3.62;74.29;99347.94;6185568;23;20222;-81
2021/01/07 07:07:00;;;;;;;5.80;3.92;;;;;;;3.63;74.38;99343.59;6187441;23;20028;-81
2021/01/07 07:09:40;;;;;;;5.50;4.18;;;;;;;3.62;74.05;99347.06;6161102;23;20527;-84
2021/01/07 07:12:08;;;;;;;5.85;4.30;;;;;;;3.63;74.73;99347.03;6160955;23;20021;-82
2021/01/07 07:14:34;;;;;;;5.90;4.43;;;;;;;3.63;74.64;99351.41;6187262;23;20025;-81
2021/01/07 07:17:11;;;;;;;5.45;4.50;;;;;;;3.60;74.30;99347.16;6187229;23;20025;-81
2021/01/07 07:19:38;;;;;;;5.07;3.83;;;;;;;3.62;74.39;99347.06;6187212;23;20025;-81
2021/01/07 07:22:05;;;;;;;7.93;4.50;;;;;;;3.62;74.43;99354.88;6161352;23;20016;-81
2021/01/07 07:24:34;;;;;;;6.38;3.80;;;;;;;3.61;74.97;99353.19;6187150;23;20100;-81
2021/01/07 07:27:03;;;;;;;5.43;4.10;;;;;;;3.60;74.66;99354.97;6161302;23;20025;-81
2021/01/07 07:29:34;;;;;;;4.63;3.67;;;;;;;3.60;74.34;99348.91;6187083;23;20032;-81
2021/01/07 07:32:01;;;;;;;4.82;3.47;;;;;;;3.59;74.66;99355.03;6160949;23;20024;-81
2021/01/07 07:34:31;;;;;;;4.70;3.30;;;;;;;3.57;74.35;99356.81;6187429;23;20025;-81
2021/01/07 07:37:00;;;;;;;6.20;3.78;;;;;;;3.54;74.60;99356.94;6161145;23;20025;-81
2021/01/07 07:39:27;;;;;;;5.32;4.03;;;;;;;3.52;74.81;99357.81;6187341;23;20029;-81
2021/01/07 07:42:24;;;;;;;5.55;4.07;;;;;;;3.49;74.20;99357.94;6161208;23;20017;-81
2021/01/07 07:44:51;;;;;;;4.70;3.78;;;;;;;3.50;74.91;99357.03;6168356;23;20025;-81
2021/01/07 07:47:23;;;;;;;5.80;4.15;;;;;;;3.49;74.42;99360.53;6187282;23;20025;-85
2021/01/07 07:49:56;;;;;;;7.35;4.60;;;;;;;3.47;74.31;99354.53;6161059;23;20024;-81
2021/01/07 07:52:24;;;;;;;8.93;4.78;;;;;;;3.50;74.78;99353.56;6175692;23;20020;-84
2021/01/07 07:55:03;;;;;;;5.40;4.20;;;;;;;3.47;74.60;99359.72;6191037;23;20025;-84
2021/01/07 07:57:32;;;;;;;5.28;4.05;;;;;;;3.50;75.19;99361.38;6217021;23;20025;-84
2021/01/07 08:00:20;;;;;;;5.32;4.20;;;;;;;3.46;74.26;99367.59;6217251;23;20059;-84
2021/01/07 08:02:50;;;;;;;6.20;4.68;;;;;;;3.47;74.85;99366.66;6216829;23;20063;-84
2021/01/07 08:05:26;;;;;;;7.20;4.78;;;;;;;3.47;74.65;99366.66;6191028;23;20020;-85
2021/01/07 08:07:54;;;;;;;6.68;4.22;;;;;;;3.47;74.84;99367.53;6191103;23;20025;-84
2021/01/07 08:10:20;;;;;;;6.15;4.57;;;;;;;3.47;75.12;99372.75;6190823;23;20031;-84
2021/01/07 08:12:47;;;;;;;6.40;3.90;;;;;;;3.48;75.10;99373.59;6216306;23;20016;-84
2021/01/07 08:15:28;;;;;;;6.45;4.55;;;;;;;3.46;74.94;99384.06;6190705;23;20024;-84
2021/01/07 08:17:54;;;;;;;5.70;4.28;;;;;;;3.50;75.47;99374.38;6216768;23;20024;-84
2021/01/07 08:20:25;;;;;;;6.60;4.50;;;;;;;3.51;74.93;99373.47;6216799;23;20025;-83
2021/01/07 08:22:53;;;;;;;9.20;5.47;;;;;;;3.54;75.15;99388.16;6216352;23;20024;-83
2021/01/07 08:25:29;;;;;;;5.68;4.05;;;;;;;3.51;74.54;99378.69;6190667;23;20024;-84
2021/01/07 08:28:00;;;;;;;7.22;4.65;;;;;;;3.52;75.05;99373.44;6217341;23;20363;-84
2021/01/07 08:30:30;;;;;;;5.90;4.30;;;;;;;3.52;74.93;99375.19;6190777;23;20017;-84
2021/01/07 08:33:00;;;;;;;6.78;4.75;;;;;;;3.50;74.54;99371.78;6216275;23;20029;-84
2021/01/07 08:35:27;;;;;;;6.93;4.97;;;;;;;3.48;74.86;99371.81;6165636;23;20387;-84
2021/01/07 08:37:53;;;;;;;7.10;5.00;;;;;;;3.48;75.15;99382.25;6216604;23;20024;-83
2021/01/07 08:40:21;;;;;;;6.53;4.32;;;;;;;3.48;75.24;99377.03;6190506;23;20091;-83
2021/01/07 08:42:47;;;;;;;7.78;5.50;;;;;;;3.48;75.25;99377.03;6216219;23;20371;-84
2021/01/07 08:45:13;;;;;;;8.07;5.05;;;;;;;3.50;75.18;99374.38;6216475;23;20463;-84
2021/01/07 08:47:39;;;;;;;7.18;4.72;;;;;;;3.52;75.32;99383.00;6190435;23;20021;-84
2021/01/07 08:50:11;;;;;;;6.68;4.32;;;;;;;3.54;75.07;99375.16;6190418;23;20032;-84
2021/01/07 08:52:48;;;;;;;7.28;4.97;;;;;;;3.55;75.04;99379.44;6215893;23;20020;-84
2021/01/07 08:55:14;;;;;;;7.85;5.28;;;;;;;3.58;75.06;99379.31;6216812;23;20035;-84
2021/01/07 08:57:40;;;;;;;8.18;4.82;;;;;;;3.59;75.10;99376.66;6189923;23;20071;-84
2021/01/07 09:00:19;;;;;;;10.43;5.70;;;;;;;3.56;74.57;99376.78;6189847;23;20071;-84
2021/01/07 09:03:05;;;;;;;6.30;4.70;;;;;;;3.59;74.85;99375.84;6215908;23;20032;-84
2021/01/07 09:05:32;;;;;;;6.32;4.68;;;;;;;3.57;75.17;99378.50;6216850;23;20094;-84
2021/01/07 09:08:08;;;;;;;6.57;4.35;;;;;;;3.55;74.93;99377.69;6216272;23;20459;-84
2021/01/07 09:10:35;;;;;;;7.45;4.45;;;;;;;3.56;75.23;99375.94;6190130;23;20025;-84
2021/01/07 09:13:22;;;;;;;6.65;4.55;;;;;;;3.53;74.15;99376.91;6189414;23;20024;-84
2021/01/07 09:16:19;;;;;;;6.88;4.00;;;;;;;3.52;74.61;99378.63;6189179;23;20095;-84
2021/01/07 09:19:20;;;;;;;6.80;3.83;;;;;;;3.50;74.91;99372.66;6213769;23;20024;-84
2021/01/07 09:21:59;;;;;;;6.32;4.03;;;;;;;3.47;74.63;99372.75;6190847;23;20023;-84
2021/01/07 09:24:50;;;;;;;6.15;4.35;;;;;;;3.48;74.70;99378.81;6190229;23;20032;-84
2021/01/07 09:27:21;;;;;;;7.13;4.20;;;;;;;3.51;75.03;99368.28;6216385;23;20020;-84
2021/01/07 09:29:57;;;;;;;5.75;4.00;;;;;;;3.48;74.48;99373.59;6189740;23;20024;-84
2021/01/07 09:32:26;;;;;;;6.03;3.95;;;;;;;3.50;75.27;99371.78;6190459;23;20028;-84
2021/01/07 09:34:52;;;;;;;5.63;4.00;;;;;;;3.51;75.18;99368.28;6189969;23;20027;-84
2021/01/07 09:37:22;;;;;;;4.95;3.58;;;;;;;3.51;75.13;99371.72;6190039;23;20024;-84
2021/01/07 09:39:50;;;;;;;6.60;4.80;;;;;;;3.52;75.39;99378.63;6216247;23;20083;-84
2021/01/07 09:42:18;;;;;;;6.03;4.00;;;;;;;3.55;75.43;99374.25;6215529;23;20482;-84
2021/01/07 09:44:45;;;;;;;6.65;4.40;;;;;;;3.56;75.66;99376.78;6190028;23;20021;-83
2021/01/07 09:47:20;;;;;;;5.82;3.80;;;;;;;3.56;74.85;99370.72;6216346;23;20020;-84
2021/01/07 09:49:46;;;;;;;5.55;4.03;;;;;;;3.60;75.44;99370.59;6189982;23;20035;-84
2021/01/07 09:52:13;;;;;;;7.60;4.45;;;;;;;3.62;75.64;99368.75;6189312;23;20048;-84
2021/01/07 09:54:39;;;;;;;5.80;4.00;;;;;;;3.64;75.40;99368.72;6190263;23;20025;-84
2021/01/07 09:57:06;;;;;;;6.60;4.40;;;;;;;3.66;75.55;99372.09;6189767;23;20021;-84
2021/01/07 09:59:33;;;;;;;5.50;3.90;;;;;;;3.68;75.34;99365.09;6189636;23;20490;-84
2021/01/07 10:02:01;;;;;;;6.47;4.25;;;;;;;3.70;75.13;99368.50;6189259;23;20029;-84
2021/01/07 10:04:29;;;;;;;6.10;4.25;;;;;;;3.73;75.48;99363.19;6189300;23;20486;-84
2021/01/07 10:07:04;;;;;;;6.57;4.13;;;;;;;3.73;75.04;99363.19;6215869;23;20028;-84
2021/01/07 10:09:30;;;;;;;9.20;4.38;;;;;;;3.78;75.41;99357.81;6189820;23;20028;-84
2021/01/07 10:12:01;;;;;;;6.85;4.30;;;;;;;3.81;75.26;99357.69;6189917;23;20067;-84
2021/01/07 10:14:28;;;;;;;6.65;4.03;;;;;;;3.83;75.45;99358.50;6215719;23;20082;-84
2021/01/07 10:16:58;;;;;;;6.55;4.63;;;;;;;3.86;75.08;99354.94;6189210;23;20028;-84
2021/01/07 10:19:26;;;;;;;7.55;4.57;;;;;;;3.86;74.92;99352.34;6189831;23;20036;-85
2021/01/07 10:22:06;;;;;;;6.07;4.20;;;;;;;3.84;74.74;99354.13;6215949;23;20067;-84
2021/01/07 10:24:34;;;;;;;6.22;3.78;;;;;;;3.88;75.36;99342.69;6215705;23;20055;-84
2021/01/07 10:27:03;;;;;;;9.00;5.00;;;;;;;3.88;75.21;99351.38;6215944;23;20439;-83
2021/01/07 10:29:32;;;;;;;6.40;4.45;;;;;;;3.91;75.30;99351.28;6216036;23;20044;-84
2021/01/07 10:32:03;;;;;;;6.07;4.35;;;;;;;3.94;75.43;99352.06;6189188;23;20027;-84
2021/01/07 10:34:33;;;;;;;7.55;4.90;;;;;;;3.95;75.59;99349.41;6215609;23;20028;-83
2021/01/07 10:37:02;;;;;;;8.10;5.22;;;;;;;3.98;75.34;99343.22;6215631;23;20031;-83
2021/01/07 10:39:32;;;;;;;8.07;5.18;;;;;;;3.97;75.02;99342.41;6189626;23;20020;-83
2021/01/07 10:41:59;;;;;;;8.07;4.43;;;;;;;3.97;75.04;99334.59;6214999;23;20024;-83
2021/01/07 10:44:28;;;;;;;5.40;4.32;;;;;;;3.98;74.89;99335.41;6217287;23;20028;-83
2021/01/07 10:46:58;;;;;;;7.93;4.90;;;;;;;3.98;74.81;99336.28;6216016;23;20021;-83
2021/01/07 10:49:30;;;;;;;7.00;4.43;;;;;;;3.98;74.97;99333.66;6218038;23;20208;-83
2021/01/07 10:52:02;;;;;;;9.80;5.28;;;;;;;4.03;75.46;99334.34;6216412;23;20016;-83
2021/01/07 10:55:05;;;;;;;7.53;5.18;;;;;;;4.03;74.78;99328.28;6217147;23;20024;-83
2021/01/07 10:58:06;;;;;;;8.60;5.23;;;;;;;4.07;74.50;99329.03;6217595;23;20020;-83
2021/01/07 11:00:57;;;;;;;8.93;4.75;;;;;;;4.11;74.22;99322.81;6217160;23;20526;-83
2021/01/07 11:04:01;;;;;;;8.35;5.28;;;;;;;4.13;74.23;99329.66;6216748;23;20025;-82
2021/01/07 11:06:32;;;;;;;10.70;5.65;;;;;;;4.16;74.88;99323.47;6191050;23;20024;-83
2021/01/07 11:09:18;;;;;;;7.05;5.03;;;;;;;4.18;75.17;99321.66;6217048;23;20087;-83
2021/01/07 11:11:53;;;;;;;9.48;5.13;;;;;;;4.16;74.66;99311.28;6217175;23;20032;-83
2021/01/07 11:14:55;;;;;;;11.82;5.15;;;;;;;4.16;74.23;99320.88;6217392;23;20021;-83
2021/01/07 11:17:24;;;;;;;8.27;5.13;;;;;;;4.19;74.84;99306.88;6190811;23;20394;-83
2021/01/07 11:19:52;;;;;;;8.82;4.97;;;;;;;4.21;75.05;99305.03;6216665;23;20021;-83
2021/01/07 11:22:24;;;;;;;6.80;4.85;;;;;;;4.21;75.28;99300.69;6216440;23;20044;-83
2021/01/07 11:24:52;;;;;;;10.10;5.60;;;;;;;4.23;74.84;99301.47;6217339;23;20391;-82
2021/01/07 11:27:21;;;;;;;8.52;5.35;;;;;;;4.24;74.72;99299.72;6216880;23;20070;-83
2021/01/07 11:29:48;;;;;;;7.43;4.93;;;;;;;4.25;75.08;99297.06;6216861;23;20028;-83
2021/01/07 11:32:16;;;;;;;7.47;5.10;;;;;;;4.25;74.98;99302.28;6215830;23;20467;-83
2021/01/07 11:34:43;;;;;;;7.82;5.00;;;;;;;4.25;74.74;99297.06;6217408;23;20039;-83
2021/01/07 11:37:20;;;;;;;9.15;5.50;;;;;;;4.24;74.39;99300.59;6191452;23;20024;-83
2021/01/07 11:40:03;;;;;;;8.10;5.32;;;;;;;4.23;74.30;99301.47;6217465;23;20020;-83
2021/01/07 11:42:35;;;;;;;8.77;5.80;;;;;;;4.26;74.58;99292.72;6217343;23;20091;-84
2021/01/07 11:45:22;;;;;;;8.30;5.40;;;;;;;4.25;74.27;99293.59;6217382;23;20478;-83
2021/01/07 11:47:54;;;;;;;9.20;5.82;;;;;;;4.25;74.31;99291.00;6217684;23;20079;-84
2021/01/07 11:50:25;;;;;;;9.70;6.13;;;;;;;4.23;74.29;99293.66;6218380;23;20029;-84
2021/01/07 11:52:52;;;;;;;9.52;6.03;;;;;;;4.23;74.75;99293.66;6216863;23;20020;-84
2021/01/07 11:55:19;;;;;;;11.18;7.00;;;;;;;4.21;74.71;99287.66;6191617;23;20028;-84
2021/01/07 11:57:46;;;;;;;9.20;6.18;;;;;;;4.20;74.84;99275.56;6217202;23;20109;-84
2021/01/07 12:00:15;;;;;;;10.80;6.63;;;;;;;4.20;74.87;99275.56;6217517;23;20487;-84
2021/01/07 12:02:43;;;;;;;10.55;6.65;;;;;;;4.20;75.53;99275.56;6216679;23;20039;-82
2021/01/07 12:05:12;;;;;;;10.25;6.95;;;;;;;4.23;75.24;99264.16;6190562;23;20025;-81
2021/01/07 12:07:41;;;;;;;11.45;6.40;;;;;;;4.24;75.22;99263.25;6216597;23;20060;-84
2021/01/07 12:10:19;;;;;;;12.23;6.97;;;;;;;4.27;75.08;99260.53;6192451;23;20020;-85
2021/01/07 12:13:14;;;;;;;11.25;7.05;;;;;;;4.26;74.53;99254.47;6216444;23;20031;-83
2021/01/07 12:15:44;;;;;;;11.65;6.80;;;;;;;4.31;75.30;99256.91;6217150;23;20021;-82
2021/01/07 12:18:12;;;;;;;11.88;7.68;;;;;;;4.36;75.76;99259.31;6190490;23;20399;-84
2021/01/07 12:20:42;;;;;;;12.38;7.50;;;;;;;4.36;74.86;99246.28;6190423;23;20040;-84
2021/01/07 12:23:27;;;;;;;14.45;7.43;;;;;;;4.36;74.91;99241.06;6215804;23;20095;-83